createdAt,value
2017-08-17T00:00:05.430Z,0
2017-08-17T00:01:05.387Z,0
2017-08-17T00:02:05.356Z,0
2017-08-17T00:03:05.338Z,0
2017-08-17T00:04:05.331Z,0
2017-08-17T00:05:05.334Z,0
2017-08-17T00:06:05.322Z,0
2017-08-17T00:07:05.009Z,0
2017-08-17T00:08:05.198Z,0
2017-08-17T00:09:05.192Z,0
2017-08-17T00:10:04.971Z,0
2017-08-17T00:11:05.266Z,0
2017-08-17T00:12:05.254Z,0
2017-08-17T00:13:04.948Z,0
2017-08-17T00:14:05.227Z,0
2017-08-17T00:15:05.237Z,0
2017-08-17T00:16:04.921Z,0
2017-08-17T00:17:04.920Z,0
2017-08-17T00:18:05.198Z,0
2017-08-17T00:19:05.218Z,0
2017-08-17T00:20:04.869Z,0
2017-08-17T00:21:05.169Z,0
2017-08-17T00:22:04.880Z,0
2017-08-17T00:23:04.855Z,0
2017-08-17T00:24:04.848Z,0
2017-08-17T00:25:04.826Z,0
2017-08-17T00:26:05.116Z,0
2017-08-17T00:27:04.805Z,0
2017-08-17T00:28:05.107Z,0
2017-08-17T00:29:04.796Z,0
2017-08-17T00:30:04.793Z,0
2017-08-17T00:31:04.764Z,0
2017-08-17T00:32:04.773Z,0
2017-08-17T00:33:04.765Z,0
2017-08-17T00:34:04.732Z,0
2017-08-17T00:35:04.734Z,0
2017-08-17T00:36:04.744Z,0
2017-08-17T00:37:04.706Z,0
2017-08-17T00:38:04.702Z,0
2017-08-17T00:39:05.003Z,0
2017-08-17T00:40:04.986Z,0
2017-08-17T00:41:04.982Z,0
2017-08-17T00:42:04.971Z,0
2017-08-17T00:43:04.974Z,0
2017-08-17T00:44:04.644Z,0
2017-08-17T00:45:18.601Z,0
2017-08-17T00:46:04.619Z,0
2017-08-17T00:47:04.624Z,0
2017-08-17T00:48:04.905Z,0
2017-08-17T00:49:04.614Z,0
2017-08-17T00:50:04.587Z,0
2017-08-17T00:51:04.893Z,0
2017-08-17T00:52:04.867Z,0
2017-08-17T00:53:04.232Z,0
2017-08-17T00:54:04.845Z,0
2017-08-17T00:55:04.831Z,0
2017-08-17T00:56:04.823Z,0
2017-08-17T00:57:04.505Z,0
2017-08-17T00:58:04.821Z,0
2017-08-17T00:59:04.178Z,0
2017-08-17T01:00:04.171Z,0
2017-08-17T01:01:04.782Z,0
2017-08-17T01:02:04.761Z,0
2017-08-17T01:03:04.488Z,0
2017-08-17T01:04:04.446Z,0
2017-08-17T01:05:04.415Z,0
2017-08-17T01:06:04.726Z,0
2017-08-17T01:07:04.711Z,0
2017-08-17T01:08:04.397Z,0
2017-08-17T01:09:04.715Z,0
2017-08-17T01:10:04.683Z,0
2017-08-17T01:11:04.673Z,0
2017-08-17T01:12:04.660Z,0
2017-08-17T01:13:04.668Z,0
2017-08-17T01:14:04.652Z,0
2017-08-17T01:15:04.631Z,0
2017-08-17T01:16:04.637Z,0
2017-08-17T01:17:04.621Z,0
2017-08-17T01:18:04.615Z,0
2017-08-17T01:19:04.590Z,0
2017-08-17T01:20:04.581Z,0
2017-08-17T01:21:04.567Z,0
2017-08-17T01:22:04.559Z,0
2017-08-17T01:23:04.541Z,0
2017-08-17T01:24:04.547Z,0
2017-08-17T01:25:04.523Z,0
2017-08-17T01:26:04.224Z,0
2017-08-17T01:27:04.521Z,0
2017-08-17T01:28:04.510Z,0
2017-08-17T01:29:04.188Z,0
2017-08-17T01:30:04.477Z,0
2017-08-17T01:31:04.165Z,0
2017-08-17T01:32:04.456Z,0
2017-08-17T01:33:04.166Z,0
2017-08-17T01:34:03.844Z,0
2017-08-17T01:35:04.452Z,0
2017-08-17T01:36:04.427Z,0
2017-08-17T01:37:04.409Z,0
2017-08-17T01:38:04.398Z,0
2017-08-17T01:39:04.100Z,0
2017-08-17T01:40:04.402Z,0
2017-08-17T01:41:03.801Z,0
2017-08-17T01:42:04.359Z,0
2017-08-17T01:43:04.352Z,0
2017-08-17T01:44:04.342Z,0
2017-08-17T01:45:04.033Z,0
2017-08-17T01:46:04.025Z,0
2017-08-17T01:47:04.322Z,0
2017-08-17T01:48:03.990Z,0
2017-08-17T01:49:03.986Z,0
2017-08-17T01:50:03.979Z,0
2017-08-17T01:51:03.996Z,0
2017-08-17T01:52:03.664Z,0
2017-08-17T01:53:03.939Z,0
2017-08-17T01:54:04.242Z,0
2017-08-17T01:55:04.258Z,0
2017-08-17T01:56:03.906Z,0
2017-08-17T01:57:03.903Z,0
2017-08-17T01:58:03.899Z,0
2017-08-17T01:59:03.896Z,0
2017-08-17T02:00:03.861Z,0
2017-08-17T02:01:03.855Z,0
2017-08-17T02:02:03.845Z,0
2017-08-17T02:03:03.862Z,0
2017-08-17T02:04:04.127Z,0
2017-08-17T02:05:04.124Z,0
2017-08-17T02:06:04.123Z,0
2017-08-17T02:07:04.097Z,0
2017-08-17T02:08:04.090Z,0
2017-08-17T02:09:04.111Z,0
2017-08-17T02:10:04.062Z,0
2017-08-17T02:11:04.085Z,0
2017-08-17T02:12:04.057Z,0
2017-08-17T02:13:04.030Z,0
2017-08-17T02:14:04.031Z,0
2017-08-17T02:15:04.009Z,0
2017-08-17T02:16:04.008Z,0
2017-08-17T02:17:04.003Z,0
2017-08-17T02:18:03.994Z,0
2017-08-17T02:19:03.367Z,0
2017-08-17T02:20:03.988Z,0
2017-08-17T02:21:03.956Z,0
2017-08-17T02:22:03.947Z,0
2017-08-17T02:23:03.624Z,0
2017-08-17T02:24:03.924Z,0
2017-08-17T02:25:03.912Z,0
2017-08-17T02:26:03.912Z,0
2017-08-17T02:27:03.888Z,0
2017-08-17T02:28:03.590Z,0
2017-08-17T02:29:03.874Z,0
2017-08-17T02:30:03.872Z,0
2017-08-17T02:31:03.857Z,0
2017-08-17T02:32:03.850Z,0
2017-08-17T02:33:03.532Z,0
2017-08-17T02:34:03.824Z,0
2017-08-17T02:35:03.828Z,0
2017-08-17T02:36:03.812Z,0
2017-08-17T02:37:03.804Z,0
2017-08-17T02:38:03.780Z,0
2017-08-17T02:39:03.781Z,0
2017-08-17T02:40:03.782Z,0
2017-08-17T02:41:03.751Z,0
2017-08-17T02:42:03.747Z,0
2017-08-17T02:43:03.755Z,0
2017-08-17T02:44:03.738Z,0
2017-08-17T02:45:03.433Z,0
2017-08-17T02:46:03.394Z,0
2017-08-17T02:47:03.699Z,0
2017-08-17T02:48:03.371Z,0
2017-08-17T02:49:03.672Z,0
2017-08-17T02:50:03.372Z,0
2017-08-17T02:51:03.646Z,0
2017-08-17T02:52:03.634Z,0
2017-08-17T02:53:03.630Z,0
2017-08-17T02:54:03.620Z,0
2017-08-17T02:55:03.305Z,0
2017-08-17T02:56:03.004Z,0
2017-08-17T02:57:03.278Z,0
2017-08-17T02:58:03.273Z,0
2017-08-17T02:59:03.262Z,0
2017-08-17T03:00:03.556Z,0
2017-08-17T03:01:03.234Z,0
2017-08-17T03:02:03.533Z,0
2017-08-17T03:03:03.530Z,0
2017-08-17T03:04:03.512Z,0
2017-08-17T03:05:03.515Z,0
2017-08-17T03:06:03.510Z,0
2017-08-17T03:07:03.481Z,0
2017-08-17T03:08:03.178Z,0
2017-08-17T03:09:03.478Z,0
2017-08-17T03:10:03.459Z,0
2017-08-17T03:11:03.468Z,0
2017-08-17T03:12:03.446Z,0
2017-08-17T03:13:03.430Z,0
2017-08-17T03:14:03.412Z,0
2017-08-17T03:15:03.098Z,0
2017-08-17T03:16:03.409Z,0
2017-08-17T03:17:03.425Z,0
2017-08-17T03:18:03.380Z,0
2017-08-17T03:19:03.389Z,0
2017-08-17T03:20:03.375Z,0
2017-08-17T03:21:03.055Z,0
2017-08-17T03:22:02.722Z,0
2017-08-17T03:23:03.038Z,0
2017-08-17T03:24:03.343Z,0
2017-08-17T03:25:03.320Z,0
2017-08-17T03:26:03.307Z,0
2017-08-17T03:27:02.985Z,0
2017-08-17T03:28:03.283Z,0
2017-08-17T03:29:03.272Z,0
2017-08-17T03:30:03.262Z,0
2017-08-17T03:31:03.279Z,0
2017-08-17T03:32:03.238Z,0
2017-08-17T03:33:03.230Z,0
2017-08-17T03:34:03.218Z,0
2017-08-17T03:35:03.215Z,0
2017-08-17T03:36:03.204Z,0
2017-08-17T03:37:03.204Z,0
2017-08-17T03:38:03.176Z,0
2017-08-17T03:39:02.882Z,0
2017-08-17T03:40:02.861Z,0
2017-08-17T03:41:03.162Z,0
2017-08-17T03:42:03.138Z,0
2017-08-17T03:43:02.842Z,0
2017-08-17T03:44:02.836Z,0
2017-08-17T03:45:02.521Z,0
2017-08-17T03:46:02.789Z,0
2017-08-17T03:47:02.791Z,0
2017-08-17T03:48:02.784Z,0
2017-08-17T03:49:02.763Z,0
2017-08-17T03:50:03.065Z,0
2017-08-17T03:51:02.750Z,0
2017-08-17T03:52:02.752Z,0
2017-08-17T03:53:03.044Z,0
2017-08-17T03:54:03.027Z,0
2017-08-17T03:55:02.707Z,0
2017-08-17T03:56:02.705Z,0
2017-08-17T03:57:02.682Z,0
2017-08-17T03:58:02.686Z,0
2017-08-17T03:59:02.669Z,0
2017-08-17T04:00:02.976Z,0
2017-08-17T04:01:02.652Z,0
2017-08-17T04:02:02.647Z,0
2017-08-17T04:03:02.674Z,0
2017-08-17T04:04:02.622Z,0
2017-08-17T04:05:02.913Z,5
2017-08-17T04:06:02.901Z,5
2017-08-17T04:07:02.889Z,5
2017-08-17T04:08:02.885Z,5
2017-08-17T04:09:02.883Z,5
2017-08-17T04:10:02.891Z,10
2017-08-17T04:11:02.857Z,10
2017-08-17T04:12:02.547Z,10
2017-08-17T04:13:02.840Z,15
2017-08-17T04:14:02.560Z,15
2017-08-17T04:15:02.231Z,15
2017-08-17T04:16:02.528Z,15
2017-08-17T04:17:02.786Z,15
2017-08-17T04:18:02.775Z,20
2017-08-17T04:19:02.790Z,20
2017-08-17T04:20:02.782Z,20
2017-08-17T04:21:02.743Z,20
2017-08-17T04:22:02.446Z,25
2017-08-17T04:23:02.753Z,25
2017-08-17T04:24:02.724Z,25
2017-08-17T04:25:02.413Z,25
2017-08-17T04:26:02.708Z,25
2017-08-17T04:27:02.690Z,25
2017-08-17T04:28:02.382Z,30
2017-08-17T04:29:02.667Z,35
2017-08-17T04:30:02.662Z,45
2017-08-17T04:31:02.658Z,50
2017-08-17T04:32:02.649Z,55
2017-08-17T04:33:02.622Z,65
2017-08-17T04:34:02.632Z,70
2017-08-17T04:35:02.618Z,70
2017-08-17T04:36:02.291Z,75
2017-08-17T04:37:02.295Z,80
2017-08-17T04:38:01.979Z,85
2017-08-17T04:39:02.288Z,90
2017-08-17T04:40:02.591Z,90
2017-08-17T04:41:02.248Z,95
2017-08-17T04:42:02.555Z,100
2017-08-17T04:43:02.225Z,105
2017-08-17T04:44:02.514Z,115
2017-08-17T04:45:02.513Z,120
2017-08-17T04:46:02.496Z,125
2017-08-17T04:47:02.495Z,130
2017-08-17T04:48:02.206Z,140
2017-08-17T04:49:02.164Z,150
2017-08-17T04:50:02.457Z,170
2017-08-17T04:51:02.450Z,190
2017-08-17T04:52:02.438Z,220
2017-08-17T04:53:01.824Z,235
2017-08-17T04:54:02.419Z,245
2017-08-17T04:55:02.407Z,240
2017-08-17T04:56:02.405Z,245
2017-08-17T04:57:02.400Z,285
2017-08-17T04:58:02.372Z,325
2017-08-17T04:59:01.758Z,365
2017-08-17T05:00:02.062Z,345
2017-08-17T05:01:02.356Z,375
2017-08-17T05:02:02.341Z,445
2017-08-17T05:03:02.037Z,420
2017-08-17T05:04:02.001Z,435
2017-08-17T05:05:01.997Z,515
2017-08-17T05:06:02.295Z,535
2017-08-17T05:07:02.283Z,540
2017-08-17T05:08:02.267Z,525
2017-08-17T05:09:02.271Z,585
2017-08-17T05:10:02.268Z,525
2017-08-17T05:11:02.262Z,625
2017-08-17T05:12:01.942Z,660
2017-08-17T05:13:02.224Z,670
2017-08-17T05:14:01.600Z,660
2017-08-17T05:15:01.901Z,670
2017-08-17T05:16:02.197Z,685
2017-08-17T05:17:02.202Z,685
2017-08-17T05:18:02.191Z,685
2017-08-17T05:19:02.171Z,670
2017-08-17T05:20:02.153Z,665
2017-08-17T05:21:02.158Z,675
2017-08-17T05:22:02.134Z,715
2017-08-17T05:23:02.138Z,750
2017-08-17T05:24:02.116Z,765
2017-08-17T05:25:02.103Z,760
2017-08-17T05:26:02.108Z,775
2017-08-17T05:27:01.793Z,545
2017-08-17T05:28:02.069Z,905
2017-08-17T05:29:02.055Z,940
2017-08-17T05:30:02.062Z,910
2017-08-17T05:31:02.048Z,895
2017-08-17T05:32:02.045Z,905
2017-08-17T05:33:02.027Z,745
2017-08-17T05:34:02.025Z,500
2017-08-17T05:35:02.005Z,485
2017-08-17T05:36:01.986Z,475
2017-08-17T05:37:01.678Z,465
2017-08-17T05:38:01.981Z,465
2017-08-17T05:39:01.960Z,470
2017-08-17T05:40:01.971Z,475
2017-08-17T05:41:01.944Z,480
2017-08-17T05:42:01.929Z,475
2017-08-17T05:43:01.928Z,480
2017-08-17T05:44:01.928Z,480
2017-08-17T05:45:01.910Z,490
2017-08-17T05:46:01.900Z,490
2017-08-17T05:47:01.575Z,500
2017-08-17T05:48:01.882Z,490
2017-08-17T05:49:01.878Z,485
2017-08-17T05:50:01.842Z,490
2017-08-17T05:51:01.829Z,490
2017-08-17T05:52:01.852Z,475
2017-08-17T05:53:01.512Z,455
2017-08-17T05:54:01.503Z,420
2017-08-17T05:55:01.802Z,390
2017-08-17T05:56:01.805Z,405
2017-08-17T05:57:01.183Z,445
2017-08-17T05:58:01.769Z,475
2017-08-17T05:59:01.743Z,505
2017-08-17T06:00:01.450Z,530
2017-08-17T06:01:01.737Z,540
2017-08-17T06:02:01.124Z,545
2017-08-17T06:03:01.724Z,550
2017-08-17T06:04:01.709Z,555
2017-08-17T06:05:01.708Z,575
2017-08-17T06:06:01.698Z,560
2017-08-17T06:07:01.670Z,540
2017-08-17T06:08:01.669Z,515
2017-08-17T06:09:01.662Z,525
2017-08-17T06:10:01.374Z,555
2017-08-17T06:11:01.636Z,575
2017-08-17T06:12:01.627Z,615
2017-08-17T06:13:01.619Z,660
2017-08-17T06:14:01.614Z,695
2017-08-17T06:15:01.598Z,720
2017-08-17T06:16:01.600Z,720
2017-08-17T06:17:01.603Z,695
2017-08-17T06:18:01.572Z,625
2017-08-17T06:19:01.560Z,550
2017-08-17T06:20:01.552Z,505
2017-08-17T06:21:01.558Z,500
2017-08-17T06:22:01.528Z,510
2017-08-17T06:23:01.507Z,500
2017-08-17T06:24:01.510Z,455
2017-08-17T06:25:01.509Z,410
2017-08-17T06:26:01.514Z,370
2017-08-17T06:27:01.492Z,360
2017-08-17T06:28:01.474Z,340
2017-08-17T06:29:01.455Z,325
2017-08-17T06:30:01.446Z,335
2017-08-17T06:31:01.128Z,370
2017-08-17T06:32:01.428Z,395
2017-08-17T06:33:01.432Z,445
2017-08-17T06:34:01.437Z,510
2017-08-17T06:35:01.400Z,575
2017-08-17T06:36:01.389Z,650
2017-08-17T06:37:01.394Z,720
2017-08-17T06:38:01.082Z,790
2017-08-17T06:39:01.373Z,850
2017-08-17T06:40:01.374Z,890
2017-08-17T06:41:01.359Z,930
2017-08-17T06:42:01.343Z,1015
2017-08-17T06:43:01.351Z,1020
2017-08-17T06:44:01.338Z,1070
2017-08-17T06:45:01.320Z,1130
2017-08-17T06:46:01.321Z,1120
2017-08-17T06:47:00.695Z,1075
2017-08-17T06:48:01.295Z,1040
2017-08-17T06:49:01.273Z,1135
2017-08-17T06:50:01.265Z,1110
2017-08-17T06:51:01.287Z,1680
2017-08-17T06:52:00.946Z,1055
2017-08-17T06:53:00.953Z,1070
2017-08-17T06:54:00.939Z,1080
2017-08-17T06:55:01.253Z,1565
2017-08-17T06:56:01.225Z,1245
2017-08-17T06:57:01.225Z,1375
2017-08-17T06:58:01.192Z,1640
2017-08-17T06:59:01.200Z,1740
2017-08-17T07:00:00.893Z,1320
2017-08-17T07:01:00.875Z,1645
2017-08-17T07:02:01.180Z,2160
2017-08-17T07:05:35.460Z,2035
2017-08-17T07:06:01.151Z,1930
2017-08-17T07:07:01.128Z,1790
2017-08-17T07:08:01.126Z,1780
2017-08-17T07:09:01.124Z,1680
2017-08-17T07:10:01.094Z,1720
2017-08-17T07:11:01.096Z,1740
2017-08-17T07:12:01.093Z,1765
2017-08-17T07:13:00.483Z,1845
2017-08-17T07:14:01.088Z,1970
2017-08-17T07:15:01.060Z,2040
2017-08-17T07:16:01.068Z,1995
2017-08-17T07:17:01.060Z,2035
2017-08-17T07:18:01.052Z,2045
2017-08-17T07:19:01.048Z,1945
2017-08-17T07:20:01.035Z,1995
2017-08-17T07:21:01.022Z,2045
2017-08-17T07:22:01.014Z,2090
2017-08-17T07:23:01.010Z,2155
2017-08-17T07:24:01.004Z,2150
2017-08-17T07:25:01.010Z,2220
2017-08-17T07:26:00.717Z,2265
2017-08-17T07:27:00.987Z,2025
2017-08-17T07:28:00.978Z,1895
2017-08-17T07:29:00.956Z,1945
2017-08-17T07:30:00.962Z,1835
2017-08-17T07:31:00.969Z,1890
2017-08-17T07:32:00.653Z,2070
2017-08-17T07:33:00.645Z,2085
2017-08-17T07:34:00.947Z,2105
2017-08-17T07:35:00.951Z,2200
2017-08-17T07:36:00.327Z,2325
2017-08-17T07:37:00.044Z,2280
2017-08-17T07:38:00.925Z,2270
2017-08-17T07:39:00.614Z,2090
2017-08-17T07:40:00.929Z,2110
2017-08-17T07:41:00.918Z,2295
2017-08-17T07:42:00.900Z,2165
2017-08-17T07:43:00.900Z,1930
2017-08-17T07:44:00.889Z,1820
2017-08-17T07:45:00.891Z,1830
2017-08-17T07:46:00.890Z,2025
2017-08-17T07:47:00.580Z,2365
2017-08-17T07:48:00.872Z,2220
2017-08-17T07:49:00.556Z,2100
2017-08-17T07:50:00.237Z,2145
2017-08-17T07:51:00.847Z,2270
2017-08-17T07:52:00.849Z,2200
2017-08-17T07:53:00.836Z,2805
2017-08-17T07:54:00.829Z,2645
2017-08-17T07:55:00.848Z,2660
2017-08-17T07:56:00.819Z,2520
2017-08-17T07:57:00.203Z,2585
2017-08-17T07:58:00.508Z,2380
2017-08-17T07:59:00.492Z,2155
2017-08-17T08:00:00.812Z,2365
2017-08-17T08:01:00.493Z,2515
2017-08-17T08:02:00.798Z,2510
2017-08-17T08:03:00.480Z,2700
2017-08-17T08:04:00.166Z,3035
2017-08-17T08:04:59.866Z,2890
2017-08-17T08:06:00.472Z,2530
2017-08-17T08:07:00.138Z,2765
2017-08-17T08:08:00.146Z,2845
2017-08-17T08:09:00.745Z,2705
2017-08-17T08:10:00.442Z,2575
2017-08-17T08:11:00.450Z,2030
2017-08-17T08:12:00.410Z,2500
2017-08-17T08:13:00.413Z,2615
2017-08-17T08:14:00.393Z,2830
2017-08-17T08:15:00.405Z,2855
2017-08-17T08:16:00.397Z,2775
2017-08-17T08:17:00.693Z,2965
2017-08-17T08:18:00.684Z,2795
2017-08-17T08:19:00.688Z,1885
2017-08-17T08:20:00.666Z,1585
2017-08-17T08:21:00.374Z,2795
2017-08-17T08:22:00.655Z,2255
2017-08-17T08:23:00.652Z,2675
2017-08-17T08:24:00.680Z,2000
2017-08-17T08:25:00.320Z,2440
2017-08-17T08:26:00.652Z,2960
2017-08-17T08:27:00.626Z,3020
2017-08-17T08:28:00.618Z,3015
2017-08-17T08:29:00.629Z,3175
2017-08-17T08:30:00.578Z,1450
2017-08-17T08:31:00.597Z,995
2017-08-17T08:32:00.611Z,1175
2017-08-17T08:33:00.576Z,940
2017-08-17T08:34:00.563Z,2920
2017-08-17T08:35:00.546Z,1225
2017-08-17T08:36:00.547Z,2890
2017-08-17T08:37:00.547Z,3170
2017-08-17T08:38:00.525Z,3185
2017-08-17T08:39:00.508Z,3350
2017-08-17T08:40:00.527Z,3260
2017-08-17T08:41:00.507Z,3345
2017-08-17T08:42:00.184Z,1850
2017-08-17T08:43:00.513Z,3190
2017-08-17T08:44:00.491Z,3180
2017-08-17T08:45:00.488Z,3415
2017-08-17T08:46:00.490Z,3595
2017-08-17T08:47:00.464Z,3360
2017-08-17T08:48:00.462Z,2785
2017-08-17T08:49:00.448Z,2865
2017-08-17T08:50:00.452Z,1975
2017-08-17T08:51:00.428Z,1740
2017-08-17T08:52:00.428Z,1740
2017-08-17T08:53:00.408Z,1805
2017-08-17T08:54:00.421Z,2845
2017-08-17T08:55:00.107Z,2825
2017-08-17T08:56:00.387Z,3875
2017-08-17T08:57:00.381Z,1990
2017-08-17T08:58:00.364Z,1935
2017-08-17T08:59:00.382Z,2100
2017-08-17T09:00:00.368Z,2110
2017-08-17T09:01:00.045Z,2125
2017-08-17T09:02:00.345Z,2005
2017-08-17T09:03:00.034Z,2130
2017-08-17T09:04:00.329Z,1910
2017-08-17T09:05:00.036Z,3970
2017-08-17T09:06:00.317Z,3695
2017-08-17T09:07:00.313Z,1850
2017-08-17T09:07:59.998Z,1810
2017-08-17T09:09:00.297Z,3505
2017-08-17T09:10:00.291Z,3395
2017-08-17T09:10:59.959Z,3345
2017-08-17T09:12:00.270Z,4045
2017-08-17T09:13:00.265Z,3565
2017-08-17T09:14:00.264Z,3270
2017-08-17T09:15:00.234Z,4265
2017-08-17T09:16:00.228Z,4535
2017-08-17T09:17:00.231Z,4130
2017-08-17T09:17:59.927Z,2620
2017-08-17T09:19:00.210Z,2010
2017-08-17T09:20:00.218Z,2580
2017-08-17T09:21:00.202Z,1760
2017-08-17T09:22:00.200Z,3810
2017-08-17T09:23:00.199Z,2090
2017-08-17T09:24:00.198Z,2045
2017-08-17T09:25:00.178Z,3625
2017-08-17T09:26:00.176Z,3735
2017-08-17T09:26:59.851Z,4235
2017-08-17T09:28:00.146Z,4030
2017-08-17T09:29:00.165Z,3590
2017-08-17T09:30:00.149Z,3390
2017-08-17T09:31:00.130Z,3835
2017-08-17T09:32:00.138Z,3930
2017-08-17T09:33:00.123Z,3550
2017-08-17T09:33:59.528Z,3480
2017-08-17T09:35:00.116Z,3145
2017-08-17T09:36:00.112Z,2435
2017-08-17T09:37:00.100Z,3835
2017-08-17T09:38:00.101Z,2555
2017-08-17T09:39:00.090Z,4845
2017-08-17T09:40:00.087Z,4200
2017-08-17T09:41:00.081Z,3910
2017-08-17T09:42:00.079Z,4185
2017-08-17T09:42:59.774Z,3935
2017-08-17T09:43:59.757Z,3520
2017-08-17T09:45:00.064Z,3730
2017-08-17T09:46:00.058Z,2180
2017-08-17T09:47:00.035Z,3545
2017-08-17T09:47:59.736Z,3570
2017-08-17T09:49:00.036Z,3585
2017-08-17T09:50:00.035Z,3595
2017-08-17T09:51:00.029Z,3235
2017-08-17T09:52:00.019Z,4140
2017-08-17T09:53:00.013Z,4215
2017-08-17T09:54:00.020Z,3645
2017-08-17T09:54:59.694Z,3260
2017-08-17T09:55:59.998Z,3425
2017-08-17T09:56:59.987Z,3740
2017-08-17T09:57:59.689Z,3635
2017-08-17T09:58:59.982Z,2920
2017-08-17T09:59:59.683Z,3185
2017-08-17T10:00:59.673Z,3725
2017-08-17T10:01:59.965Z,3470
2017-08-17T10:02:59.963Z,4080
2017-08-17T10:03:59.963Z,4665
2017-08-17T10:04:59.654Z,4505
2017-08-17T10:05:59.961Z,2900
2017-08-17T10:06:59.663Z,3780
2017-08-17T10:07:59.950Z,3815
2017-08-17T10:08:59.955Z,2830
2017-08-17T10:09:59.940Z,1235
2017-08-17T10:10:59.625Z,1935
2017-08-17T10:11:59.930Z,2670
2017-08-17T10:12:59.610Z,2345
2017-08-17T10:13:59.914Z,1500
2017-08-17T10:14:59.916Z,1745
2017-08-17T10:15:59.909Z,4260
2017-08-17T10:16:59.287Z,3770
2017-08-17T10:17:59.910Z,2345
2017-08-17T10:18:59.586Z,1840
2017-08-17T10:19:59.871Z,5815
2017-08-17T10:20:59.900Z,3290
2017-08-17T10:21:59.877Z,2465
2017-08-17T10:22:59.860Z,1505
2017-08-17T10:23:59.859Z,3310
2017-08-17T10:24:59.258Z,2215
2017-08-17T10:25:59.857Z,4075
2017-08-17T10:26:59.848Z,5940
2017-08-17T10:27:59.227Z,2225
2017-08-17T10:28:59.847Z,2430
2017-08-17T10:29:59.825Z,1995
2017-08-17T10:30:59.828Z,2070
2017-08-17T10:31:59.815Z,2060
2017-08-17T10:32:59.833Z,1440
2017-08-17T10:33:59.809Z,1350
2017-08-17T10:34:59.787Z,1685
2017-08-17T10:35:59.504Z,2825
2017-08-17T10:36:59.781Z,4995
2017-08-17T10:37:59.482Z,2120
2017-08-17T10:38:59.802Z,3390
2017-08-17T10:39:59.794Z,1885
2017-08-17T10:40:59.766Z,2020
2017-08-17T10:41:59.461Z,4445
2017-08-17T10:42:59.748Z,1840
2017-08-17T10:43:59.749Z,2200
2017-08-17T10:44:59.753Z,2555
2017-08-17T10:45:58.821Z,2245
2017-08-17T10:46:59.726Z,1915
2017-08-17T10:47:59.145Z,4295
2017-08-17T10:48:59.725Z,4340
2017-08-17T10:49:59.710Z,4260
2017-08-17T10:50:59.710Z,3715
2017-08-17T10:51:59.101Z,3600
2017-08-17T10:52:59.691Z,3820
2017-08-17T10:53:59.390Z,3975
2017-08-17T10:54:59.699Z,2645
2017-08-17T10:55:59.680Z,4095
2017-08-17T10:56:59.674Z,3830
2017-08-17T10:57:59.361Z,3815
2017-08-17T10:58:59.372Z,3625
2017-08-17T10:59:59.690Z,3670
2017-08-17T11:00:58.723Z,3925
2017-08-17T11:01:59.348Z,2215
2017-08-17T11:02:59.349Z,3685
2017-08-17T11:03:59.341Z,4230
2017-08-17T11:04:59.318Z,3590
2017-08-17T11:05:59.026Z,2250
2017-08-17T11:06:59.655Z,3345
2017-08-17T11:07:59.612Z,2325
2017-08-17T11:08:59.047Z,1760
2017-08-17T11:09:59.297Z,2275
2017-08-17T11:10:59.305Z,1610
2017-08-17T11:11:59.298Z,3100
2017-08-17T11:12:59.279Z,3395
2017-08-17T11:13:59.291Z,3955
2017-08-17T11:14:59.570Z,2525
2017-08-17T11:15:59.265Z,4275
2017-08-17T11:16:59.571Z,4270
2017-08-17T11:17:59.577Z,1920
2017-08-17T11:18:59.558Z,1890
2017-08-17T11:19:59.558Z,4670
2017-08-17T11:20:59.262Z,4575
2017-08-17T11:21:59.542Z,4590
2017-08-17T11:22:59.544Z,1605
2017-08-17T11:23:59.527Z,4540
2017-08-17T11:24:59.225Z,5440
2017-08-17T11:25:59.537Z,2980
2017-08-17T11:26:59.519Z,1365
2017-08-17T11:27:59.214Z,2460
2017-08-17T11:28:59.501Z,2325
2017-08-17T11:29:59.500Z,5780
2017-08-17T11:30:59.181Z,6285
2017-08-17T11:31:59.496Z,3475
2017-08-17T11:32:59.474Z,4445
2017-08-17T11:33:59.475Z,1300
2017-08-17T11:34:59.470Z,1560
2017-08-17T11:35:59.488Z,3320
2017-08-17T11:36:59.478Z,4300
2017-08-17T11:37:59.164Z,2680
2017-08-17T11:38:59.155Z,1700
2017-08-17T11:39:59.469Z,3415
2017-08-17T11:40:59.456Z,4275
2017-08-17T11:41:59.442Z,2105
2017-08-17T11:42:58.531Z,5875
2017-08-17T11:43:58.831Z,2130
2017-08-17T11:44:59.129Z,4715
2017-08-17T11:45:59.124Z,2065
2017-08-17T11:46:59.114Z,5170
2017-08-17T11:47:59.428Z,1605
2017-08-17T11:48:59.110Z,1975
2017-08-17T11:49:59.095Z,2005
2017-08-17T11:50:59.414Z,3600
2017-08-17T11:51:59.396Z,4620
2017-08-17T11:52:59.092Z,2825
2017-08-17T11:53:59.104Z,5430
2017-08-17T11:54:59.382Z,3880
2017-08-17T11:55:59.069Z,4060
2017-08-17T11:56:58.766Z,1660
2017-08-17T11:57:59.055Z,2345
2017-08-17T11:58:59.048Z,2400
2017-08-17T11:59:59.043Z,2205
2017-08-17T12:00:59.045Z,2135
2017-08-17T12:01:59.329Z,2165
2017-08-17T12:02:59.352Z,2785
2017-08-17T12:03:59.041Z,1180
2017-08-17T12:04:58.434Z,1300
2017-08-17T12:05:59.338Z,2210
2017-08-17T12:06:59.015Z,6200
2017-08-17T12:07:59.300Z,5705
2017-08-17T12:08:59.318Z,6345
2017-08-17T12:09:59.299Z,3225
2017-08-17T12:10:59.211Z,6085
2017-08-17T12:11:59.000Z,2655
2017-08-17T12:12:59.307Z,5775
2017-08-17T12:13:59.301Z,5965
2017-08-17T12:14:58.987Z,5560
2017-08-17T12:15:59.283Z,5485
2017-08-17T12:16:58.975Z,1970
2017-08-17T12:17:58.968Z,3560
2017-08-17T12:18:59.285Z,5730
2017-08-17T12:19:59.263Z,2045
2017-08-17T12:20:58.841Z,1975
2017-08-17T12:21:59.245Z,1865
2017-08-17T12:22:59.269Z,2055
2017-08-17T12:23:59.248Z,5085
2017-08-17T12:24:59.252Z,5395
2017-08-17T12:25:59.237Z,3520
2017-08-17T12:26:59.240Z,2810
2017-08-17T12:27:59.236Z,4185
2017-08-17T12:28:58.928Z,4185
2017-08-17T12:29:59.243Z,3560
2017-08-17T12:30:59.212Z,4010
2017-08-17T12:31:59.208Z,4345
2017-08-17T12:32:58.926Z,1725
2017-08-17T12:33:58.610Z,4840
2017-08-17T12:34:59.210Z,4650
2017-08-17T12:35:59.202Z,4585
2017-08-17T12:36:59.199Z,2005
2017-08-17T12:37:59.191Z,2110
2017-08-17T12:38:59.194Z,2075
2017-08-17T12:39:59.172Z,1915
2017-08-17T12:40:59.175Z,2125
2017-08-17T12:41:59.172Z,1950
2017-08-17T12:42:58.884Z,2205
2017-08-17T12:43:59.151Z,1660
2017-08-17T12:44:58.872Z,1525
2017-08-17T12:45:59.154Z,1765
2017-08-17T12:46:58.859Z,2165
2017-08-17T12:47:59.152Z,1505
2017-08-17T12:48:59.151Z,1290
2017-08-17T12:49:59.348Z,1305
2017-08-17T12:50:58.837Z,1430
2017-08-17T12:51:58.820Z,1475
2017-08-17T12:52:59.135Z,1385
2017-08-17T12:54:13.737Z,1450
2017-08-17T12:54:59.118Z,1870
2017-08-17T12:56:12.745Z,3100
2017-08-17T12:56:58.791Z,4510
2017-08-17T12:57:58.798Z,3125
2017-08-17T12:58:59.081Z,1780
2017-08-17T12:59:59.093Z,1675
2017-08-17T13:00:58.774Z,1785
2017-08-17T13:01:59.285Z,3440
2017-08-17T13:02:58.768Z,2400
2017-08-17T13:03:59.076Z,2760
2017-08-17T13:04:59.081Z,1880
2017-08-17T13:05:59.065Z,1645
2017-08-17T13:06:59.053Z,1470
2017-08-17T13:07:59.054Z,1350
2017-08-17T13:08:59.037Z,1270
2017-08-17T13:09:59.051Z,1205
2017-08-17T13:10:58.741Z,1160
2017-08-17T13:11:59.038Z,1120
2017-08-17T13:12:59.025Z,1055
2017-08-17T13:13:58.727Z,1025
2017-08-17T13:14:59.015Z,1000
2017-08-17T13:15:59.004Z,975
2017-08-17T13:16:58.411Z,980
2017-08-17T13:17:58.701Z,955
2017-08-17T13:18:59.009Z,940
2017-08-17T13:19:58.704Z,835
2017-08-17T13:20:58.995Z,725
2017-08-17T13:21:58.998Z,625
2017-08-17T13:22:58.688Z,610
2017-08-17T13:23:58.979Z,680
2017-08-17T13:24:58.672Z,840
2017-08-17T13:25:58.357Z,975
2017-08-17T13:26:58.963Z,1025
2017-08-17T13:27:58.656Z,1045
2017-08-17T13:28:58.946Z,1040
2017-08-17T13:30:12.857Z,1280
2017-08-17T13:30:58.640Z,2040
2017-08-17T13:31:58.643Z,2385
2017-08-17T13:32:58.940Z,3095
2017-08-17T13:33:58.931Z,2755
2017-08-17T13:35:12.548Z,1955
2017-08-17T13:36:12.552Z,2005
2017-08-17T13:36:58.913Z,1645
2017-08-17T13:37:58.605Z,1295
2017-08-17T13:38:58.926Z,1155
2017-08-17T13:39:59.110Z,1080
2017-08-17T13:40:58.582Z,1175
2017-08-17T13:41:58.584Z,1055
2017-08-17T13:42:58.891Z,1175
2017-08-17T13:43:58.884Z,1555
2017-08-17T13:44:58.890Z,1960
2017-08-17T13:45:58.857Z,2200
2017-08-17T13:46:58.549Z,3010
2017-08-17T13:47:58.862Z,1860
2017-08-17T13:48:58.568Z,3460
2017-08-17T13:49:58.834Z,3520
2017-08-17T13:50:58.227Z,2985
2017-08-17T13:51:58.842Z,3310